ENGINEERING TRACK TESTING
Weather & Rail Temperature Monitoring

Weather station JACKSON

Jackson Passenger Sta. (Jackson, MI)

Measurement History

Home Current History Weekly graphs

,

to download data from the start of , to the end of ,

Conditions for past 24 hours (since 09/01/2026 01:30 AM)

Time Track 1 N rail Track 1 S rail Track 2 N rail Track 2 S rail Outside Air
Temperature
Solar
Radiation
Max. Wind Humidity Air Pressure Rain
SpeedDir
09/02/2026 01:15 AM   75 °F 69 °F 75 °F 75.8 °F 0 watt/m2 0 mph --- 90 % 30.073 in Hg 0 in
09/02/2026 01:00 AM   75 °F 69 °F 75 °F 75.8 °F 0 watt/m2 0 mph --- 90 % 30.079 in Hg 0 in
09/02/2026 12:45 AM   75 °F 69 °F 75 °F 75.9 °F 0 watt/m2 0 mph --- 89 % 30.079 in Hg 0 in
09/02/2026 12:30 AM   76 °F 70 °F 75 °F 76 °F 0 watt/m2 0 mph --- 89 % 30.074 in Hg 0 in
09/02/2026 12:15 AM   76 °F 70 °F 76 °F 76.2 °F 0 watt/m2 0 mph --- 88 % 30.072 in Hg 0 in
09/02/2026 12:00 AM   76 °F 70 °F 76 °F 76.4 °F 0 watt/m2 0 mph --- 88 % 30.076 in Hg 0 in
09/01/2026 11:45 PM   76 °F 70 °F 76 °F 76.7 °F 0 watt/m2 0 mph --- 87 % 30.072 in Hg 0 in
09/01/2026 11:30 PM   77 °F 71 °F 77 °F 77.1 °F 0 watt/m2 0 mph --- 86 % 30.075 in Hg 0 in
09/01/2026 11:15 PM   77 °F 71 °F 77 °F 77.4 °F 0 watt/m2 0 mph --- 85 % 30.076 in Hg 0 in
09/01/2026 11:00 PM   78 °F 72 °F 77 °F 77.5 °F 0 watt/m2 0 mph --- 85 % 30.074 in Hg 0 in
09/01/2026 10:45 PM   78 °F 72 °F 78 °F 77.8 °F 0 watt/m2 0 mph --- 84 % 30.07 in Hg 0 in
09/01/2026 10:30 PM   79 °F 73 °F 78 °F 78 °F 0 watt/m2 0 mph --- 83 % 30.069 in Hg 0 in
09/01/2026 10:15 PM   79 °F 73 °F 79 °F 78.2 °F 0 watt/m2 0 mph --- 83 % 30.068 in Hg 0 in
09/01/2026 10:00 PM -90 °F 80 °F 74 °F 79 °F 78.5 °F 0 watt/m2 0 mph --- 82 % 30.069 in Hg 0 in
09/01/2026 09:45 PM -90 °F 81 °F 75 °F 80 °F 78.9 °F 0 watt/m2 0 mph --- 82 % 30.06 in Hg 0 in
09/01/2026 09:30 PM -90 °F 82 °F 76 °F 81 °F 79.5 °F 0 watt/m2 0 mph --- 80 % 30.082 in Hg 0 in
09/01/2026 09:15 PM -90 °F 83 °F 77 °F 82 °F 79.8 °F 0 watt/m2 0 mph --- 79 % 30.07 in Hg 0 in
09/01/2026 09:00 PM -90 °F 84 °F 78 °F 83 °F 80.3 °F 0 watt/m2 0 mph --- 78 % 30.072 in Hg 0 in
09/01/2026 08:45 PM -90 °F 85 °F 79 °F 84 °F 80.8 °F 0 watt/m2 0 mph --- 77 % 30.079 in Hg 0 in
09/01/2026 08:30 PM -90 °F 87 °F 80 °F 85 °F 81.3 °F 0 watt/m2 0 mph --- 76 % 30.08 in Hg 0 in
09/01/2026 08:15 PM -90 °F 88 °F 81 °F 86 °F 81.8 °F 1 watt/m2 0 mph --- 75 % 30.074 in Hg 0 in
09/01/2026 08:00 PM -90 °F 89 °F 82 °F 87 °F 82.3 °F 11 watt/m2 0 mph --- 75 % 30.071 in Hg 0 in
09/01/2026 07:45 PM -90 °F 91 °F 84 °F 88 °F 82.7 °F 28 watt/m2 0 mph --- 74 % 30.077 in Hg 0 in
09/01/2026 07:30 PM -90 °F 92 °F 85 °F 89 °F 82.9 °F 63 watt/m2 0 mph --- 73 % 30.082 in Hg 0 in
09/01/2026 07:15 PM -90 °F 93 °F 86 °F 90 °F 83.3 °F 121 watt/m2 0 mph --- 73 % 30.098 in Hg 0 in
09/01/2026 07:00 PM -90 °F 93 °F 87 °F 91 °F 83.4 °F 133 watt/m2 0 mph --- 73 % 30.1 in Hg 0 in
09/01/2026 06:45 PM -90 °F 94 °F 87 °F 92 °F 83.4 °F 176 watt/m2 0 mph --- 73 % 30.091 in Hg 0 in
09/01/2026 06:30 PM -90 °F 95 °F 89 °F 93 °F 83.6 °F 103 watt/m2 0 mph --- 73 % 30.09 in Hg 0 in
09/01/2026 06:15 PM -90 °F 97 °F 91 °F 94 °F 84.2 °F 116 watt/m2 0 mph --- 72 % 30.087 in Hg 0 in
09/01/2026 06:00 PM -90 °F 98 °F 91 °F 96 °F 84.8 °F 255 watt/m2 0 mph --- 72 % 30.093 in Hg 0 in
09/01/2026 05:45 PM -90 °F 100 °F 93 °F 96 °F 84.9 °F 155 watt/m2 0 mph --- 72 % 30.077 in Hg 0 in
09/01/2026 05:30 PM -90 °F 101 °F 94 °F 97 °F 85.4 °F 183 watt/m2 0 mph --- 72 % 30.064 in Hg 0 in
09/01/2026 05:15 PM -90 °F 102 °F 95 °F 98 °F 85.6 °F 419 watt/m2 0 mph --- 72 % 30.065 in Hg 0 in
09/01/2026 05:00 PM -90 °F 102 °F 95 °F 98 °F 85.2 °F 298 watt/m2 0 mph --- 74 % 30.061 in Hg 0 in
09/01/2026 04:45 PM -90 °F 104 °F 96 °F 99 °F 85.5 °F 125 watt/m2 0 mph --- 72 % 30.063 in Hg 0 in
09/01/2026 04:30 PM -90 °F 107 °F 99 °F 100 °F 86.3 °F 80 watt/m2 0 mph --- 70 % 30.069 in Hg 0 in
09/01/2026 04:15 PM -90 °F 110 °F 103 °F 104 °F 87.9 °F 102 watt/m2 0 mph --- 69 % 30.069 in Hg 0 in
09/01/2026 04:00 PM -90 °F 114 °F 105 °F 107 °F 89.5 °F 235 watt/m2 0 mph --- 67 % 30.072 in Hg 0 in
09/01/2026 03:45 PM -88 °F 116 °F 107 °F 108 °F 89.8 °F 422 watt/m2 0 mph --- 66 % 30.07 in Hg 0 in
09/01/2026 03:30 PM -86 °F 116 °F 108 °F 110 °F 90.2 °F 868 watt/m2 0 mph --- 67 % 30.078 in Hg 0 in
09/01/2026 03:15 PM -88 °F 115 °F 107 °F 107 °F 89.3 °F 390 watt/m2 0 mph --- 69 % 30.079 in Hg 0 in
09/01/2026 03:00 PM -86 °F 115 °F 107 °F 108 °F 89.7 °F 726 watt/m2 0 mph --- 68 % 30.082 in Hg 0 in
09/01/2026 02:45 PM -86 °F 115 °F 107 °F 107 °F 89.4 °F 645 watt/m2 0 mph --- 68 % 30.083 in Hg 0 in
09/01/2026 02:30 PM -88 °F 114 °F 106 °F 108 °F 89 °F 674 watt/m2 0 mph --- 69 % 30.086 in Hg 0 in
09/01/2026 02:15 PM -86 °F 114 °F 106 °F 107 °F 89.1 °F 453 watt/m2 0 mph --- 68 % 30.083 in Hg 0 in
09/01/2026 02:00 PM -88 °F 113 °F 105 °F 106 °F 89.3 °F 796 watt/m2 0 mph --- 67 % 30.077 in Hg 0 in
09/01/2026 01:45 PM -90 °F 111 °F 104 °F 103 °F 88.7 °F 783 watt/m2 0 mph --- 69 % 30.075 in Hg 0 in
09/01/2026 01:30 PM -90 °F 109 °F 103 °F 102 °F 88.4 °F 772 watt/m2 0 mph --- 69 % 30.077 in Hg 0 in
09/01/2026 01:15 PM -90 °F 107 °F 101 °F 101 °F 87.8 °F 769 watt/m2 0 mph --- 69 % 30.077 in Hg 0 in
09/01/2026 01:00 PM -90 °F 105 °F 99 °F 99 °F 87.2 °F 770 watt/m2 0 mph --- 71 % 30.079 in Hg 0 in
09/01/2026 12:45 PM -90 °F 103 °F 97 °F 98 °F 86.8 °F 568 watt/m2 0 mph --- 70 % 30.083 in Hg 0 in
09/01/2026 12:30 PM -90 °F 101 °F 95 °F 99 °F 87 °F 859 watt/m2 0 mph --- 72 % 30.085 in Hg 0 in
09/01/2026 12:15 PM -90 °F 99 °F 93 °F 96 °F 86.3 °F 376 watt/m2 0 mph --- 70 % 30.087 in Hg 0 in
09/01/2026 12:00 PM -90 °F 98 °F 91 °F 95 °F 85.8 °F 707 watt/m2 0 mph --- 72 % 30.095 in Hg 0 in
09/01/2026 11:45 AM 66 °F 94 °F 89 °F 91 °F 85.2 °F 596 watt/m2 0 mph --- 73 % 30.094 in Hg 0 in
09/01/2026 11:30 AM -90 °F 93 °F 87 °F 92 °F 85 °F 459 watt/m2 0 mph --- 73 % 30.094 in Hg 0 in
09/01/2026 11:15 AM -90 °F 90 °F 84 °F 89 °F 84.1 °F 558 watt/m2 0 mph --- 75 % 30.093 in Hg 0 in
09/01/2026 11:00 AM   88 °F 81 °F 87 °F 82.9 °F 533 watt/m2 0 mph --- 76 % 30.093 in Hg 0 in
09/01/2026 10:45 AM   85 °F 78 °F 84 °F 81.7 °F 522 watt/m2 0 mph --- 78 % 30.095 in Hg 0 in
09/01/2026 10:30 AM   83 °F 76 °F 82 °F 80.5 °F 442 watt/m2 0 mph --- 79 % 30.1 in Hg 0 in
09/01/2026 10:15 AM   80 °F 73 °F 81 °F 79.2 °F 435 watt/m2 0 mph --- 81 % 30.099 in Hg 0 in
09/01/2026 10:00 AM   78 °F 70 °F 79 °F 78.2 °F 247 watt/m2 0 mph --- 82 % 30.104 in Hg 0 in
09/01/2026 09:45 AM   76 °F 69 °F 78 °F 77.6 °F 170 watt/m2 0 mph --- 82 % 30.104 in Hg 0 in
09/01/2026 09:30 AM   75 °F 68 °F 77 °F 77.3 °F 177 watt/m2 0 mph --- 83 % 30.1 in Hg 0 in
09/01/2026 09:15 AM   74 °F 67 °F 78 °F 76.5 °F 229 watt/m2 0 mph --- 85 % 30.099 in Hg 0 in
09/01/2026 09:00 AM   72 °F 66 °F 75 °F 75.5 °F 125 watt/m2 0 mph --- 87 % 30.1 in Hg 0 in
09/01/2026 08:45 AM   71 °F 65 °F 75 °F 74.5 °F 160 watt/m2 0 mph --- 89 % 30.1 in Hg 0 in
09/01/2026 08:30 AM   70 °F 63 °F 74 °F 73.4 °F 106 watt/m2 0 mph --- 91 % 30.098 in Hg 0 in
09/01/2026 08:15 AM   69 °F 62 °F 69 °F 72.8 °F 44 watt/m2 0 mph --- 92 % 30.095 in Hg 0 in
09/01/2026 08:00 AM   68 °F 62 °F 68 °F 72.2 °F 38 watt/m2 0 mph --- 93 % 30.097 in Hg 0 in
09/01/2026 07:45 AM   68 °F 61 °F 68 °F 71.6 °F 36 watt/m2 0 mph --- 93 % 30.097 in Hg 0 in
09/01/2026 07:30 AM   67 °F 61 °F 67 °F 71.1 °F 12 watt/m2 0 mph --- 93 % 30.09 in Hg 0 in
09/01/2026 07:15 AM   67 °F 61 °F 67 °F 70.9 °F 3 watt/m2 0 mph --- 93 % 30.089 in Hg 0 in
09/01/2026 07:00 AM   67 °F 60 °F 67 °F 70.8 °F 0 watt/m2 0 mph --- 93 % 30.087 in Hg 0 in
09/01/2026 06:45 AM   67 °F 61 °F 66 °F 70.9 °F 0 watt/m2 0 mph --- 93 % 30.082 in Hg 0 in
09/01/2026 06:30 AM   67 °F 61 °F 66 °F 71 °F 0 watt/m2 0 mph --- 92 % 30.081 in Hg 0 in
09/01/2026 06:15 AM   67 °F 61 °F 66 °F 71.1 °F 0 watt/m2 0 mph --- 92 % 30.081 in Hg 0 in
09/01/2026 06:00 AM   67 °F 61 °F 67 °F 71.3 °F 0 watt/m2 0 mph --- 92 % 30.078 in Hg 0 in
09/01/2026 05:45 AM   67 °F 61 °F 67 °F 71.6 °F 0 watt/m2 0 mph --- 91 % 30.079 in Hg 0 in
09/01/2026 05:30 AM   67 °F 61 °F 67 °F 71.9 °F 0 watt/m2 0 mph --- 91 % 30.077 in Hg 0 in
09/01/2026 05:15 AM   67 °F 61 °F 67 °F 72.2 °F 0 watt/m2 0 mph --- 90 % 30.08 in Hg 0 in
09/01/2026 05:00 AM -90 °F 68 °F 61 °F 67 °F 72.6 °F 0 watt/m2 0 mph --- 90 % 30.079 in Hg 0 in
09/01/2026 04:45 AM -90 °F 68 °F 62 °F 68 °F 73 °F 0 watt/m2 0 mph --- 89 % 30.073 in Hg 0 in
09/01/2026 04:30 AM -90 °F 68 °F 62 °F 68 °F 73.5 °F 0 watt/m2 0 mph --- 88 % 30.072 in Hg 0 in
09/01/2026 04:15 AM   68 °F 62 °F 68 °F 73.8 °F 0 watt/m2 0 mph --- 87 % 30.071 in Hg 0 in
09/01/2026 04:00 AM   69 °F 62 °F 68 °F 74.2 °F 0 watt/m2 0 mph --- 87 % 30.07 in Hg 0 in
09/01/2026 03:45 AM   69 °F 62 °F 68 °F 74.7 °F 0 watt/m2 0 mph --- 86 % 30.074 in Hg 0 in
09/01/2026 03:30 AM   69 °F 62 °F 68 °F 75.2 °F 0 watt/m2 0 mph --- 86 % 30.074 in Hg 0 in
09/01/2026 03:15 AM   69 °F 63 °F 69 °F 75.6 °F 0 watt/m2 0 mph --- 86 % 30.068 in Hg 0 in
09/01/2026 03:00 AM   69 °F 63 °F 69 °F 75.8 °F 0 watt/m2 0 mph --- 85 % 30.066 in Hg 0 in
09/01/2026 02:45 AM   69 °F 63 °F 69 °F 76 °F 0 watt/m2 0 mph --- 85 % 30.07 in Hg 0 in
09/01/2026 02:30 AM   70 °F 63 °F 69 °F 76.2 °F 0 watt/m2 0 mph --- 85 % 30.069 in Hg 0 in
09/01/2026 02:15 AM   70 °F 63 °F 69 °F 76.3 °F 0 watt/m2 0 mph --- 86 % 30.068 in Hg 0 in
09/01/2026 02:00 AM   70 °F 64 °F 69 °F 76.4 °F 0 watt/m2 0 mph --- 86 % 30.07 in Hg 0 in
09/01/2026 01:45 AM   70 °F 64 °F 70 °F 76.4 °F 0 watt/m2 0 mph --- 87 % 30.072 in Hg 0 in

Alarms Station information Line AM Subdivision NILES